Time;durP1;ratioP1;P1;durP2;ratioP2;P2;SDS_P1;SDS_P2;PMS_P1;PMS_P2;Temp;Humidity;BMP_temperature;BMP_pressure;BME280_temperature;BME280_humidity;BME280_pressure;Samples;Min_cycle;Max_cycle;Signal;HPM_P1;HPM_P2
2023/03/03 00:00:07;;;;;;;0.60;0.60;;;;;;;1.10;84.45;97040.53;29371;328;64013;-64
2023/03/03 00:00:38;;;;;;;2.40;2.35;;;;;;;1.12;84.16;97035.78;29373;248;63004;-56
2023/03/03 00:01:12;;;;;;;0.50;0.50;;;;;;;1.13;84.17;97042.75;29373;196;63009;-57
2023/03/03 00:01:44;;;;;;;53.90;51.30;;;;;;;1.13;83.96;97037.41;29363;273;65011;-57
2023/03/03 00:02:15;;;;;;;0.60;0.60;;;;;;;1.14;84.02;97036.37;29373;266;63009;-57
2023/03/03 00:02:47;;;;;;;0.60;0.60;;;;;;;1.14;84.11;97044.37;29373;347;63005;-57
2023/03/03 00:03:25;;;;;;;0.60;0.60;;;;;;;1.13;84.10;97040.09;29373;267;63009;-57
2023/03/03 00:03:57;;;;;;;0.60;0.60;;;;;;;1.13;84.03;97040.09;29373;202;63005;-57
2023/03/03 00:04:28;;;;;;;0.60;0.60;;;;;;;1.13;83.96;97034.75;29373;211;63009;-57
2023/03/03 00:04:59;;;;;;;0.60;0.60;;;;;;;1.14;83.93;97033.69;29373;294;63005;-57
2023/03/03 00:05:34;;;;;;;0.60;0.60;;;;;;;1.13;83.77;97036.59;29371;286;64013;-57
2023/03/03 00:06:10;;;;;;;1.73;1.62;;;;;;;1.08;83.95;97039.13;29373;237;63004;-56
2023/03/03 00:06:44;;;;;;;0.60;0.60;;;;;;;1.00;84.44;97042.97;29373;285;63009;-57
2023/03/03 00:07:21;;;;;;;0.60;0.60;;;;;;;0.96;84.68;97037.28;29373;226;63010;-58
2023/03/03 00:07:53;;;;;;;0.70;0.70;;;;;;;0.94;84.54;97041.22;29371;203;64013;-58
2023/03/03 00:08:25;;;;;;;0.60;0.60;;;;;;;0.91;84.45;97044.34;29373;196;63004;-57
2023/03/03 00:08:56;;;;;;;0.90;0.90;;;;;;;0.88;84.58;97044.78;29373;331;63009;-57
2023/03/03 00:09:28;;;;;;;0.60;0.60;;;;;;;0.90;84.52;97048.88;29373;199;63005;-57
2023/03/03 00:09:59;;;;;;;0.60;0.60;;;;;;;0.90;84.56;97048.03;29372;206;64009;-57
2023/03/03 00:10:31;;;;;;;0.60;0.60;;;;;;;0.90;84.60;97037.38;29373;219;63005;-58
2023/03/03 00:11:05;;;;;;;2.45;2.35;;;;;;;0.91;84.50;97047.81;29371;280;64013;-57
2023/03/03 00:11:37;;;;;;;0.60;0.60;;;;;;;0.93;84.37;97048.41;29373;283;63005;-57
2023/03/03 00:12:24;;;;;;;0.82;0.82;;;;;;;0.95;84.27;97042.84;29373;212;63009;-57
2023/03/03 00:12:55;;;;;;;0.88;0.88;;;;;;;0.94;84.57;97044.69;29371;206;64009;-57
2023/03/03 00:13:27;;;;;;;0.60;0.60;;;;;;;0.92;84.47;97049.44;29373;257;63009;-67
2023/03/03 00:14:01;;;;;;;0.60;0.60;;;;;;;0.92;84.47;97043.28;29373;220;63004;-57
2023/03/03 00:14:35;;;;;;;0.62;0.62;;;;;;;0.92;84.68;97045.97;29371;218;64013;-57
2023/03/03 00:15:19;;;;;;;0.70;0.70;;;;;;;0.91;84.64;97042.47;29373;224;63000;-57
2023/03/03 00:15:51;;;;;;;0.60;0.60;;;;;;;0.92;84.62;97040.62;29373;267;63008;-64
2023/03/03 00:16:36;;;;;;;0.60;0.60;;;;;;;0.92;84.69;97045.97;29371;214;64009;-57
2023/03/03 00:17:45;;;;;;;0.60;0.60;;;;;;;0.93;84.51;97048.41;29373;227;63009;-57
2023/03/03 00:18:47;;;;;;;0.60;0.60;;;;;;;0.88;84.46;97034.09;29373;198;63005;-58
2023/03/03 00:19:31;;;;;;;0.60;0.60;;;;;;;0.96;84.21;97039.13;29373;212;63009;-57
2023/03/03 00:20:52;;;;;;;0.60;0.60;;;;;;;0.97;84.69;97046.91;29395;220;63005;-65
2023/03/03 00:22:24;;;;;;;9.95;5.45;;;;;;;0.98;84.42;97043.19;29391;211;65009;-66
2023/03/03 00:23:38;;;;;;;0.60;0.60;;;;;;;1.03;83.94;97037.19;29373;202;63008;-57
2023/03/03 00:24:50;;;;;;;0.60;0.60;;;;;;;1.02;84.06;97040.88;29371;223;64009;-57
2023/03/03 00:25:54;;;;;;;;;;;;;;;;;;;;;
2023/03/03 00:27:16;;;;;;;0.60;0.60;;;;;;;0.96;83.92;97047.16;29373;241;63005;-57
2023/03/03 00:28:46;;;;;;;0.60;0.60;;;;;;;0.97;83.77;97038.91;29373;256;63009;-57
2023/03/03 00:30:37;;;;;;;;;;;;;;;;;;;;;
2023/03/03 00:32:08;;;;;;;0.60;0.60;;;;;;;0.90;84.38;97050.72;29373;226;63005;-65
2023/03/03 00:33:16;;;;;;;0.60;0.60;;;;;;;0.88;84.29;97047.47;29372;245;64009;-57
2023/03/03 00:34:19;;;;;;;0.60;0.60;;;;;;;0.85;84.08;97034.56;29373;197;63009;-57
2023/03/03 00:37:27;;;;;;;0.70;0.70;;;;;;;0.91;84.05;97047.00;29373;226;63004;-56
2023/03/03 00:38:18;;;;;;;1.23;1.23;;;;;;;0.92;83.92;97035.28;29371;218;64008;-67
2023/03/03 00:39:33;;;;;;;0.60;0.60;;;;;;;0.93;83.93;97034.25;29371;208;64014;-57
2023/03/03 00:40:35;;;;;;;0.60;0.60;;;;;;;0.91;83.82;97039.81;29373;288;63005;-57
2023/03/03 00:41:36;;;;;;;0.70;0.70;;;;;;;0.93;83.65;97042.25;29373;241;63009;-57
2023/03/03 00:42:35;;;;;;;0.60;0.60;;;;;;;0.94;83.55;97043.87;29373;208;63005;-57
2023/03/03 00:44:26;;;;;;;0.60;0.60;;;;;;;0.95;83.46;97046.31;29373;202;63009;-58
2023/03/03 00:45:42;;;;;;;;;;;;;;;;;;;;;
2023/03/03 00:46:54;;;;;;;;;;;;;;;;;;;;;
2023/03/03 00:47:51;;;;;;;0.60;0.60;;;;;;;0.94;83.75;97041.22;29373;227;63005;-57
2023/03/03 00:48:59;;;;;;;1.87;1.87;;;;;;;0.93;83.75;97039.56;29373;224;63009;-66
2023/03/03 00:49:56;;;;;;;0.60;0.60;;;;;;;0.93;83.35;97039.56;29372;227;64005;-57
2023/03/03 00:51:01;;;;;;;0.60;0.60;;;;;;;0.93;83.69;97039.56;29371;246;64013;-56
2023/03/03 00:52:00;;;;;;;0.60;0.60;;;;;;;0.92;83.58;97033.41;29395;247;63004;-57
2023/03/03 00:53:22;;;;;;;;;;;;;;;;;;;;;
2023/03/03 00:54:36;;;;;;;0.60;0.60;;;;;;;0.90;83.75;97035.50;29371;228;64009;-57
2023/03/03 00:55:30;;;;;;;;;;;;;;;;;;;;;
2023/03/03 00:56:50;;;;;;;;;;;;;;;;;;;;;
2023/03/03 00:57:25;;;;;;;0.60;0.60;;;;;;;0.81;84.52;97033.38;29373;214;63009;-57
2023/03/03 00:57:56;;;;;;;0.60;0.60;;;;;;;0.77;84.27;97037.53;29373;238;63009;-57
2023/03/03 00:58:28;;;;;;;0.60;0.60;;;;;;;0.76;84.49;97035.91;29373;219;63016;-57
2023/03/03 00:58:59;;;;;;;0.70;0.70;;;;;;;0.76;84.38;97041.25;29371;197;64009;-59
2023/03/03 00:59:30;;;;;;;9.93;9.25;;;;;;;0.77;84.35;97038.34;29368;263;65009;-57
2023/03/03 01:00:04;;;;;;;0.60;0.60;;;;;;;0.77;84.34;97034.88;29373;230;63004;-57
2023/03/03 01:00:40;;;;;;;0.60;0.60;;;;;;;0.77;84.22;97041.03;29373;210;63009;-57
2023/03/03 01:01:13;;;;;;;0.60;0.60;;;;;;;0.77;84.34;97032.19;29373;206;63005;-57
2023/03/03 01:01:44;;;;;;;0.60;0.60;;;;;;;0.74;84.75;97032.66;29373;230;63009;-57
2023/03/03 01:02:15;;;;;;;0.60;0.60;;;;;;;0.72;84.52;97040.06;29373;269;63005;-57
2023/03/03 01:02:47;;;;;;;0.60;0.60;;;;;;;0.72;84.56;97037.41;29373;211;63009;-57
2023/03/03 01:03:21;;;;;;;0.60;0.60;;;;;;;0.72;84.41;97040.06;29373;199;63005;-57
2023/03/03 01:03:52;;;;;;;0.60;0.60;;;;;;;0.71;84.69;97038.44;29373;233;63009;-56
2023/03/03 01:04:24;;;;;;;0.60;0.60;;;;;;;0.69;84.88;97037.88;29371;210;64009;-57
2023/03/03 01:04:55;;;;;;;0.60;0.60;;;;;;;0.68;84.94;97033.59;29373;247;63009;-56
2023/03/03 01:05:27;;;;;;;0.60;0.60;;;;;;;0.68;84.93;97038.91;29371;225;64009;-57
2023/03/03 01:05:58;;;;;;;0.60;0.60;;;;;;;0.66;84.99;97042.63;29373;216;63014;-57
2023/03/03 01:06:29;;;;;;;0.60;0.60;;;;;;;0.64;84.92;97038.56;29373;254;63004;-57
2023/03/03 01:07:00;;;;;;;0.60;0.60;;;;;;;0.64;84.88;97034.03;29373;232;63009;-57
2023/03/03 01:07:35;;;;;;;0.60;0.60;;;;;;;0.64;84.91;97041.22;29373;202;63004;-57
2023/03/03 01:08:06;;;;;;;0.60;0.60;;;;;;;0.63;85.20;97040.41;29373;202;63018;-57
2023/03/03 01:08:38;;;;;;;0.60;0.60;;;;;;;0.61;84.99;97037.16;29373;220;63016;-57
2023/03/03 01:09:10;;;;;;;0.60;0.60;;;;;;;0.61;85.04;97036.34;29373;213;63009;-57
2023/03/03 01:09:41;;;;;;;0.50;0.50;;;;;;;0.61;85.08;97034.47;29373;291;63008;-57
2023/03/03 01:10:12;;;;;;;0.60;0.60;;;;;;;0.59;85.12;97031.22;29373;206;63009;-57
2023/03/03 01:10:58;;;;;;;0.60;0.60;;;;;;;0.58;85.03;97034.13;29371;219;64009;-58
2023/03/03 01:11:29;;;;;;;0.60;0.60;;;;;;;0.58;85.10;97034.94;29373;196;63009;-57
2023/03/03 01:12:01;;;;;;;2.10;2.05;;;;;;;0.59;84.94;97031.22;29373;202;63005;-57
2023/03/03 01:12:32;;;;;;;22.58;13.40;;;;;;;0.60;85.16;97035.53;29363;207;65009;-57
2023/03/03 01:13:06;;;;;;;0.70;0.70;;;;;;;0.59;84.96;97036.56;29371;291;64009;-56
2023/03/03 01:13:40;;;;;;;0.60;0.60;;;;;;;0.59;85.03;97031.22;29373;198;63009;-57
2023/03/03 01:14:12;;;;;;;0.60;0.60;;;;;;;0.58;84.92;97032.25;29373;223;63009;-57
2023/03/03 01:14:44;;;;;;;0.60;0.60;;;;;;;0.60;84.98;97035.53;29373;248;63009;-57
2023/03/03 01:15:15;;;;;;;0.52;0.52;;;;;;;0.60;84.94;97037.38;29373;196;63004;-57
2023/03/03 01:15:50;;;;;;;0.60;0.60;;;;;;;0.61;84.94;97028.31;29373;226;63009;-59
2023/03/03 01:16:22;;;;;;;0.60;0.60;;;;;;;0.60;84.73;97032.03;29373;209;63005;-57
2023/03/03 01:16:54;;;;;;;0.60;0.60;;;;;;;0.61;84.94;97026.47;29373;223;63009;-58
2023/03/03 01:17:26;;;;;;;0.60;0.60;;;;;;;0.62;84.80;97025.44;29372;200;63005;-57
2023/03/03 01:17:57;;;;;;;3.90;3.70;;;;;;;0.64;84.64;97020.69;29371;226;64013;-57
2023/03/03 01:18:32;;;;;;;0.60;0.60;;;;;;;0.62;84.42;97027.28;29373;280;63005;-57
2023/03/03 01:19:04;;;;;;;0.60;0.60;;;;;;;0.60;84.79;97030.19;29373;258;63009;-58
2023/03/03 01:19:35;;;;;;;0.60;0.60;;;;;;;0.60;84.58;97027.50;29373;237;63005;-57
2023/03/03 01:20:09;;;;;;;0.60;0.60;;;;;;;0.60;84.66;97032.84;29373;224;63009;-56
2023/03/03 01:20:40;;;;;;;0.60;0.60;;;;;;;0.59;84.83;97030.41;29371;232;64009;-57
2023/03/03 01:21:12;;;;;;;0.60;0.60;;;;;;;0.59;84.91;97031.22;29373;244;63009;-57
2023/03/03 01:21:44;;;;;;;0.60;0.60;;;;;;;0.57;84.72;97032.47;29373;312;63004;-57
2023/03/03 01:22:15;;;;;;;0.60;0.60;;;;;;;0.56;84.86;97026.34;29373;284;63009;-57
2023/03/03 01:22:48;;;;;;;0.60;0.60;;;;;;;0.56;84.80;97031.66;29373;196;63004;-65
2023/03/03 01:23:19;;;;;;;0.88;0.88;;;;;;;0.58;84.94;97034.94;29373;265;63009;-67
2023/03/03 01:23:52;;;;;;;0.60;0.60;;;;;;;0.59;84.94;97031.22;29373;325;63009;-57
2023/03/03 01:24:23;;;;;;;0.60;0.60;;;;;;;0.60;84.92;97032.84;29373;196;63009;-57
2023/03/03 01:24:55;;;;;;;0.60;0.60;;;;;;;0.59;84.78;97033.06;29373;237;63005;-57
2023/03/03 01:25:28;;;;;;;0.60;0.60;;;;;;;0.58;84.77;97034.94;29373;278;63009;-58
2023/03/03 01:26:00;;;;;;;0.60;0.60;;;;;;;0.57;84.79;97025.28;29371;253;64009;-57
2023/03/03 01:26:31;;;;;;;0.60;0.60;;;;;;;0.57;84.87;97033.31;29373;243;63009;-58
2023/03/03 01:27:03;;;;;;;0.60;0.60;;;;;;;0.57;84.82;97030.63;29373;204;63005;-57
2023/03/03 01:27:35;;;;;;;0.60;0.60;;;;;;;0.58;85.06;97034.94;29373;209;63009;-57
2023/03/03 01:28:07;;;;;;;1.85;1.85;;;;;;;0.59;84.83;97030.41;29373;274;63004;-56
2023/03/03 01:28:38;;;;;;;0.70;0.70;;;;;;;0.59;84.90;97035.75;29373;296;63009;-57
2023/03/03 01:29:09;;;;;;;0.60;0.60;;;;;;;0.60;84.59;97026.69;29373;251;63004;-57
2023/03/03 01:29:41;;;;;;;0.60;0.60;;;;;;;0.59;84.58;97025.88;29373;225;63009;-56
2023/03/03 01:30:13;;;;;;;0.60;0.60;;;;;;;0.59;84.60;97035.75;29373;196;63004;-56
2023/03/03 01:30:45;;;;;;;0.60;0.60;;;;;;;0.59;84.61;97030.41;29371;232;64013;-57
2023/03/03 01:31:18;;;;;;;0.60;0.60;;;;;;;0.53;84.59;97025.97;29373;197;63005;-57
2023/03/03 01:31:49;;;;;;;0.60;0.60;;;;;;;0.49;84.62;97030.94;29373;209;63009;-66
2023/03/03 01:32:20;;;;;;;0.60;0.60;;;;;;;0.49;84.63;97032.78;29373;253;63005;-57
2023/03/03 01:32:52;;;;;;;0.60;0.60;;;;;;;0.48;84.77;97029.31;29373;216;63009;-57
2023/03/03 01:33:23;;;;;;;0.60;0.60;;;;;;;0.50;84.79;97037.91;29373;237;63005;-57
2023/03/03 01:33:54;;;;;;;0.60;0.60;;;;;;;0.51;84.83;97033.38;29373;228;63009;-57
2023/03/03 01:34:26;;;;;;;0.60;0.60;;;;;;;0.51;84.82;97028.84;29373;211;63005;-57
2023/03/03 01:34:57;;;;;;;0.60;0.60;;;;;;;0.52;84.79;97035.81;29373;204;63009;-57
2023/03/03 01:35:28;;;;;;;0.60;0.60;;;;;;;0.52;84.74;97035.00;29373;216;63004;-57
2023/03/03 01:36:00;;;;;;;0.60;0.60;;;;;;;0.51;84.95;97034.19;29371;202;64013;-57
2023/03/03 01:36:32;;;;;;;0.60;0.60;;;;;;;0.48;84.87;97037.31;29373;247;63004;-56
2023/03/03 01:37:07;;;;;;;0.60;0.60;;;;;;;0.47;84.89;97033.00;29373;205;63009;-57
2023/03/03 01:37:39;;;;;;;0.60;0.60;;;;;;;0.46;84.97;97036.72;29373;357;63004;-66
2023/03/03 01:38:10;;;;;;;0.70;0.70;;;;;;;0.46;85.15;97035.91;29373;257;63008;-57
2023/03/03 01:38:42;;;;;;;3.72;2.10;;;;;;;0.46;84.97;97034.06;29373;212;63005;-57
2023/03/03 01:39:14;;;;;;;0.70;0.70;;;;;;;0.46;85.11;97031.38;29373;252;63009;-57
2023/03/03 01:39:53;;;;;;;0.60;0.60;;;;;;;0.45;85.21;97035.09;29373;202;63005;-56
2023/03/03 01:40:28;;;;;;;0.60;0.60;;;;;;;0.46;85.13;97035.91;29373;249;63017;-57
2023/03/03 01:40:59;;;;;;;0.60;0.60;;;;;;;0.47;85.19;97037.53;29371;225;64009;-57
2023/03/03 01:41:34;;;;;;;0.60;0.60;;;;;;;0.48;85.07;97039.97;29371;212;64013;-56
2023/03/03 01:42:06;;;;;;;0.60;0.60;;;;;;;0.45;84.62;97034.28;29371;227;64009;-57
2023/03/03 01:42:38;;;;;;;0.85;0.85;;;;;;;0.37;85.01;97038.06;29373;197;63009;-57
2023/03/03 01:43:14;;;;;;;0.60;0.60;;;;;;;0.33;85.09;97040.41;29373;223;63004;-57
2023/03/03 01:43:49;;;;;;;0.60;0.60;;;;;;;0.32;85.42;97035.28;29373;223;63009;-57
2023/03/03 01:44:20;;;;;;;0.60;0.60;;;;;;;0.31;85.44;97034.47;29373;216;63004;-56
2023/03/03 01:45:34;;;;;;;0.60;0.60;;;;;;;0.32;85.69;97030.75;29373;259;63009;-57
2023/03/03 01:46:27;;;;;;;1.17;1.17;;;;;;;0.25;85.81;97034.53;29371;202;64009;-57
2023/03/03 01:47:09;;;;;;;0.60;0.60;;;;;;;0.25;85.62;97031.88;29371;229;64014;-57
2023/03/03 01:47:47;;;;;;;0.60;0.60;;;;;;;0.24;85.67;97033.72;29373;250;63005;-56
2023/03/03 01:48:43;;;;;;;0.60;0.60;;;;;;;0.27;85.55;97029.78;29373;245;63009;-57
2023/03/03 01:49:24;;;;;;;0.60;0.60;;;;;;;0.28;85.55;97034.91;29373;235;63010;-57
2023/03/03 01:50:03;;;;;;;0.60;0.60;;;;;;;0.29;85.66;97030.38;29395;214;63009;-66
2023/03/03 01:50:47;;;;;;;0.60;0.60;;;;;;;0.28;85.50;97034.09;29395;261;63004;-57
2023/03/03 01:51:31;;;;;;;0.60;0.60;;;;;;;0.21;85.82;97028.00;29373;215;63009;-57
2023/03/03 01:52:12;;;;;;;3.55;3.22;;;;;;;0.24;85.66;97032.91;29371;212;64009;-57
2023/03/03 01:52:46;;;;;;;0.95;0.95;;;;;;;0.22;85.67;97030.47;29395;227;63014;-57
2023/03/03 01:53:22;;;;;;;1.42;1.42;;;;;;;0.18;85.55;97033.78;29395;207;63004;-57
2023/03/03 01:54:03;;;;;;;0.60;0.60;;;;;;;0.15;85.70;97031.56;29373;222;63009;-57
2023/03/03 01:54:41;;;;;;;0.62;0.62;;;;;;;0.12;85.70;97027.50;29395;238;63005;-57
2023/03/03 01:55:18;;;;;;;0.70;0.70;;;;;;;0.13;85.72;97031.78;29395;207;63009;-56
2023/03/03 01:55:52;;;;;;;1.12;1.12;;;;;;;0.14;85.64;97030.75;29373;220;63005;-57
2023/03/03 01:56:25;;;;;;;0.60;0.60;;;;;;;0.15;85.89;97028.91;29373;210;63009;-56
2023/03/03 01:57:05;;;;;;;0.60;0.60;;;;;;;0.14;85.81;97024.59;29373;209;63004;-57
2023/03/03 01:57:45;;;;;;;0.60;0.60;;;;;;;0.12;85.85;97026.69;29371;212;64013;-57
2023/03/03 01:58:27;;;;;;;0.60;0.60;;;;;;;0.09;85.71;97030.59;29457;241;125004;-57
2023/03/03 01:59:06;;;;;;;0.60;0.60;;;;;;;0.10;85.81;97026.09;29394;223;64013;-57
2023/03/03 01:59:44;;;;;;;0.60;0.60;;;;;;;0.08;86.09;97028.97;29373;219;63004;-57
2023/03/03 02:00:17;;;;;;;0.60;0.60;;;;;;;0.04;86.22;97026.97;29373;208;63008;-57
2023/03/03 02:00:52;;;;;;;0.60;0.60;;;;;;;0.02;86.35;97029.03;29373;212;63004;-57
2023/03/03 02:01:27;;;;;;;0.60;0.60;;;;;;;-0.01;86.72;97031.16;29371;210;64014;-57
2023/03/03 02:01:59;;;;;;;0.60;0.60;;;;;;;-0.04;86.88;97028.94;29373;237;63005;-57
2023/03/03 02:02:31;;;;;;;0.60;0.60;;;;;;;-0.07;87.26;97032.03;29373;241;63009;-57
2023/03/03 02:03:03;;;;;;;0.70;0.70;;;;;;;-0.07;87.11;97026.69;29373;246;63005;-57
2023/03/03 02:03:35;;;;;;;0.70;0.70;;;;;;;-0.05;86.99;97029.16;29373;204;63009;-57
2023/03/03 02:04:08;;;;;;;0.70;0.70;;;;;;;-0.04;86.96;97030.78;29373;225;63008;-57
2023/03/03 02:04:40;;;;;;;0.65;0.65;;;;;;;-0.04;86.88;97028.94;29373;214;63009;-68
2023/03/03 02:05:13;;;;;;;0.60;0.60;;;;;;;-0.01;86.91;97025.81;29372;233;63004;-56
2023/03/03 02:05:45;;;;;;;0.60;0.60;;;;;;;0.01;86.80;97028.22;29373;285;63009;-57
2023/03/03 02:06:23;;;;;;;0.60;0.60;;;;;;;0.04;86.90;97026.97;29372;206;63004;-66
2023/03/03 02:07:00;;;;;;;0.82;0.82;;;;;;;0.06;86.83;97019.56;29371;235;64013;-58
2023/03/03 02:07:32;;;;;;;0.60;0.60;;;;;;;0.07;86.74;97022.00;29373;223;63010;-57
2023/03/03 02:08:11;;;;;;;0.60;0.60;;;;;;;0.09;86.61;97025.28;29373;284;63009;-57
2023/03/03 02:09:01;;;;;;;0.60;0.60;;;;;;;0.10;86.52;97018.91;29373;207;63005;-57
2023/03/03 02:10:01;;;;;;;0.60;0.60;;;;;;;0.12;86.28;97011.50;29373;202;63009;-57
2023/03/03 02:10:35;;;;;;;0.60;0.60;;;;;;;0.14;86.14;97022.75;29373;203;63005;-57
2023/03/03 02:11:07;;;;;;;0.60;0.60;;;;;;;0.16;86.18;97014.53;29373;240;63009;-58
2023/03/03 02:11:42;;;;;;;0.60;0.60;;;;;;;0.21;85.91;97009.34;29371;282;64009;-57
2023/03/03 02:12:17;;;;;;;0.60;0.60;;;;;;;0.27;85.28;97013.78;29373;202;63009;-57
2023/03/03 02:12:51;;;;;;;0.60;0.60;;;;;;;0.28;84.90;97013.56;29373;197;63004;-58
2023/03/03 02:13:23;;;;;;;0.60;0.60;;;;;;;0.29;85.02;97014.38;29373;226;63009;-57
2023/03/03 02:13:54;;;;;;;0.70;0.70;;;;;;;0.29;84.83;97014.38;29373;263;63004;-57
2023/03/03 02:14:26;;;;;;;0.60;0.60;;;;;;;0.28;85.16;97012.75;29373;222;63008;-57
2023/03/03 02:14:59;;;;;;;0.60;0.60;;;;;;;0.25;85.15;97007.84;29373;238;63004;-57
2023/03/03 02:15:37;;;;;;;0.60;0.60;;;;;;;0.24;85.36;97006.22;29373;198;63009;-57
2023/03/03 02:16:08;;;;;;;0.60;0.60;;;;;;;0.24;85.24;97006.22;29373;230;63009;-58
2023/03/03 02:16:40;;;;;;;0.60;0.60;;;;;;;0.26;85.34;97012.97;29371;230;64014;-57
2023/03/03 02:17:11;;;;;;;0.60;0.60;;;;;;;0.28;85.27;97007.41;29373;206;63005;-58
2023/03/03 02:17:44;;;;;;;0.50;0.50;;;;;;;0.30;85.13;97010.66;29373;219;63009;-57
2023/03/03 02:18:19;;;;;;;0.60;0.60;;;;;;;0.31;84.70;97006.97;29373;254;63005;-58
2023/03/03 02:18:50;;;;;;;0.60;0.60;;;;;;;0.32;84.91;97008.59;29373;222;63015;-57
2023/03/03 02:19:38;;;;;;;0.60;0.60;;;;;;;0.31;84.79;97001.62;29371;267;64009;-58
2023/03/03 02:20:47;;;;;;;0.60;0.60;;;;;;;0.30;84.81;97008.00;29373;218;63009;-57
2023/03/03 02:21:21;;;;;;;0.60;0.60;;;;;;;0.27;84.69;97000.44;29373;239;63009;-57
2023/03/03 02:21:53;;;;;;;0.60;0.60;;;;;;;0.26;84.78;97006.81;29371;199;64009;-57
2023/03/03 02:23:13;;;;;;;0.60;0.60;;;;;;;0.25;84.79;97000.66;29372;208;63008;-57
2023/03/03 02:24:05;;;;;;;0.65;0.65;;;;;;;0.27;84.67;97006.59;29373;220;63005;-57
2023/03/03 02:24:56;;;;;;;0.60;0.60;;;;;;;0.29;84.67;97001.03;29395;209;63009;-56
2023/03/03 02:26:04;;;;;;;0.70;0.70;;;;;;;0.28;84.53;96997.53;29376;251;126009;-57
2023/03/03 02:26:40;;;;;;;0.60;0.60;;;;;;;0.28;84.55;97002.06;29373;202;63009;-58
2023/03/03 02:27:12;;;;;;;0.62;0.62;;;;;;;0.28;84.83;96996.72;29373;282;63004;-57
2023/03/03 02:27:44;;;;;;;0.60;0.60;;;;;;;0.29;84.72;96998.34;29373;285;63014;-57
2023/03/03 02:28:15;;;;;;;0.60;0.60;;;;;;;0.30;84.75;97005.34;29373;220;63004;-57
2023/03/03 02:28:46;;;;;;;0.60;0.60;;;;;;;0.30;84.79;96998.13;29373;223;63004;-57
2023/03/03 02:29:18;;;;;;;0.60;0.60;;;;;;;0.32;84.87;96996.06;29373;205;63004;-57
2023/03/03 02:29:52;;;;;;;0.60;0.60;;;;;;;0.32;84.68;96997.91;29373;224;63008;-57
2023/03/03 02:30:24;;;;;;;0.60;0.60;;;;;;;0.34;84.67;97003.84;29371;305;64009;-57
2023/03/03 02:30:58;;;;;;;0.60;0.60;;;;;;;0.35;84.53;97000.09;29373;250;63009;-58
2023/03/03 02:31:37;;;;;;;0.50;0.50;;;;;;;0.37;84.44;96997.22;29373;203;63017;-58
2023/03/03 02:32:08;;;;;;;0.60;0.60;;;;;;;0.39;84.28;96997.81;29373;301;63009;-57
2023/03/03 02:32:43;;;;;;;0.60;0.60;;;;;;;0.39;84.33;96997.81;29371;259;64009;-57
2023/03/03 02:33:14;;;;;;;0.60;0.60;;;;;;;0.39;84.15;97003.97;29373;218;63009;-57
2023/03/03 02:33:48;;;;;;;0.60;0.60;;;;;;;0.40;84.29;96994.09;29373;219;63005;-57
2023/03/03 02:34:20;;;;;;;0.60;0.60;;;;;;;0.42;84.19;96998.16;29371;207;64013;-57
2023/03/03 02:34:52;;;;;;;0.60;0.60;;;;;;;0.45;84.12;96997.72;29373;203;63004;-59
2023/03/03 02:35:37;;;;;;;0.60;0.60;;;;;;;0.49;83.79;96998.91;29373;264;63009;-57
2023/03/03 02:36:18;;;;;;;0.70;0.70;;;;;;;0.51;83.47;96996.00;29373;203;63004;-57
2023/03/03 02:36:50;;;;;;;0.60;0.60;;;;;;;0.51;83.64;96996.81;29371;226;64013;-57
2023/03/03 02:37:25;;;;;;;0.60;0.60;;;;;;;0.52;83.60;96998.44;29373;216;63004;-58
2023/03/03 02:38:19;;;;;;;0.60;0.60;;;;;;;0.53;83.58;96997.41;29373;226;63009;-58
2023/03/03 02:39:20;;;;;;;0.60;0.60;;;;;;;0.51;83.77;96996.81;29373;214;63005;-57
2023/03/03 02:39:51;;;;;;;0.60;0.60;;;;;;;0.50;83.70;97000.53;29371;233;64009;-58
2023/03/03 02:40:27;;;;;;;0.60;0.60;;;;;;;0.51;83.70;97001.34;29373;215;63009;-58
2023/03/03 02:41:40;;;;;;;0.60;0.60;;;;;;;0.51;83.49;97002.16;29373;222;63008;-57
2023/03/03 02:42:19;;;;;;;0.60;0.60;;;;;;;0.50;83.74;97007.72;29371;289;64013;-57
2023/03/03 02:42:52;;;;;;;0.60;0.60;;;;;;;0.47;83.67;97009.00;29373;202;63004;-58
2023/03/03 02:43:28;;;;;;;0.68;0.68;;;;;;;0.45;83.85;97008.41;29373;281;63014;-58
2023/03/03 02:44:15;;;;;;;0.60;0.60;;;;;;;0.45;83.81;97003.06;29373;332;63004;-57
2023/03/03 02:44:46;;;;;;;0.60;0.60;;;;;;;0.44;84.00;97004.09;29373;198;63015;-57
2023/03/03 02:45:17;;;;;;;0.60;0.60;;;;;;;0.44;83.94;97001.44;29373;199;63004;-57
2023/03/03 02:45:48;;;;;;;0.60;0.60;;;;;;;0.44;84.15;97006.75;29373;199;63015;-57
2023/03/03 02:46:19;;;;;;;0.60;0.60;;;;;;;0.45;83.94;97007.59;29373;198;63005;-57
2023/03/03 02:46:52;;;;;;;0.60;0.60;;;;;;;0.45;84.08;97000.38;29371;207;64014;-57
2023/03/03 02:47:24;;;;;;;0.60;0.60;;;;;;;0.44;84.08;96998.75;29372;215;63005;-57
2023/03/03 02:47:56;;;;;;;0.60;0.60;;;;;;;0.44;84.25;97006.75;29373;312;63009;-57
2023/03/03 02:48:27;;;;;;;1.58;1.58;;;;;;;0.44;84.18;97004.09;29373;253;63005;-57
2023/03/03 02:48:58;;;;;;;0.60;0.60;;;;;;;0.45;84.42;97008.41;29373;205;63009;-57
2023/03/03 02:49:32;;;;;;;0.60;0.60;;;;;;;0.45;84.21;97008.41;29373;251;63004;-58
2023/03/03 02:50:05;;;;;;;0.60;0.60;;;;;;;0.45;84.38;97007.59;29371;221;64013;-57
2023/03/03 02:50:37;;;;;;;0.60;0.60;;;;;;;0.47;84.38;97002.84;29373;230;63004;-58
2023/03/03 02:51:08;;;;;;;0.60;0.60;;;;;;;0.48;84.41;97007.94;29373;198;63009;-58
2023/03/03 02:51:40;;;;;;;0.60;0.60;;;;;;;0.48;84.16;97002.59;29373;197;63000;-57
2023/03/03 02:52:13;;;;;;;0.60;0.60;;;;;;;0.51;84.24;97010.16;29372;210;63008;-57
2023/03/03 02:52:45;;;;;;;0.60;0.60;;;;;;;0.52;84.23;97008.31;29373;197;63004;-57
2023/03/03 02:53:16;;;;;;;0.70;0.70;;;;;;;0.52;84.22;97003.78;29373;211;63009;-57
2023/03/03 02:53:47;;;;;;;0.60;0.60;;;;;;;0.52;84.08;97006.47;29373;216;63005;-57
2023/03/03 02:54:21;;;;;;;0.60;0.60;;;;;;;0.54;84.09;97009.72;29373;216;63009;-57
2023/03/03 02:54:52;;;;;;;0.60;0.60;;;;;;;0.54;84.00;97007.03;29373;328;63009;-58
2023/03/03 02:55:23;;;;;;;0.60;0.60;;;;;;;0.55;84.18;97011.34;29371;215;64013;-58
2023/03/03 02:55:55;;;;;;;0.60;0.60;;;;;;;0.54;84.47;97011.56;29373;238;63005;-56
2023/03/03 02:56:27;;;;;;;0.65;0.65;;;;;;;0.55;84.35;97018.53;29373;198;63009;-58
2023/03/03 02:56:59;;;;;;;0.70;0.70;;;;;;;0.55;84.32;97019.34;29373;218;63014;-57
2023/03/03 02:57:30;;;;;;;0.60;0.60;;;;;;;0.57;84.57;97011.94;29373;327;63009;-57
2023/03/03 02:58:05;;;;;;;0.70;0.70;;;;;;;0.58;84.29;97010.91;29373;202;63004;-56
2023/03/03 02:58:37;;;;;;;0.60;0.60;;;;;;;0.59;84.32;97017.88;29373;197;63009;-57
2023/03/03 02:59:10;;;;;;;0.60;0.60;;;;;;;0.61;84.35;97017.66;29373;226;63004;-58
2023/03/03 02:59:41;;;;;;;0.60;0.60;;;;;;;0.61;84.30;97021.13;29371;215;64013;-57
2023/03/03 03:00:13;;;;;;;0.60;0.60;;;;;;;0.60;84.47;97006.16;29373;210;63001;-67
2023/03/03 03:00:46;;;;;;;0.60;0.60;;;;;;;0.61;84.39;97012.31;29371;197;64014;-57
2023/03/03 03:01:18;;;;;;;0.60;0.60;;;;;;;0.62;84.40;97014.75;29373;224;63005;-58
2023/03/03 03:01:54;;;;;;;0.60;0.60;;;;;;;0.63;84.71;97010.22;29371;216;64013;-57
2023/03/03 03:02:26;;;;;;;0.60;0.60;;;;;;;0.63;84.75;97007.56;29373;242;63005;-57
2023/03/03 03:02:57;;;;;;;0.68;0.68;;;;;;;0.64;84.84;97017.19;29373;209;63009;-57
2023/03/03 03:03:29;;;;;;;1.15;1.15;;;;;;;0.63;84.90;97011.03;29373;218;63005;-58
2023/03/03 03:04:00;;;;;;;0.60;0.60;;;;;;;0.64;85.08;97017.19;29373;242;63009;-57
2023/03/03 03:04:32;;;;;;;0.60;0.60;;;;;;;0.65;84.81;97014.28;29373;277;63004;-58
2023/03/03 03:05:04;;;;;;;0.60;0.60;;;;;;;0.65;85.08;97008.97;29373;299;63015;-57
2023/03/03 03:05:35;;;;;;;0.60;0.60;;;;;;;0.66;84.99;97015.94;29373;224;63004;-57
2023/03/03 03:06:07;;;;;;;0.60;0.60;;;;;;;0.69;85.14;97011.19;29373;267;63009;-57
2023/03/03 03:06:38;;;;;;;0.60;0.60;;;;;;;0.69;85.04;97009.31;29373;197;63004;-57
2023/03/03 03:07:10;;;;;;;0.75;0.75;;;;;;;0.70;84.85;97010.91;29371;224;64013;-57
2023/03/03 03:07:41;;;;;;;0.60;0.60;;;;;;;0.71;84.88;97009.06;29373;218;63008;-57
2023/03/03 03:08:13;;;;;;;0.60;0.60;;;;;;;0.71;84.95;97009.06;29373;262;63009;-57
2023/03/03 03:08:44;;;;;;;0.60;0.60;;;;;;;0.71;84.80;97014.41;29373;205;63005;-57
2023/03/03 03:09:17;;;;;;;0.70;0.70;;;;;;;0.72;84.93;97014.19;29372;214;64009;-57
2023/03/03 03:09:48;;;;;;;0.60;0.60;;;;;;;0.74;84.72;97016.62;29373;212;63005;-58
2023/03/03 03:10:20;;;;;;;0.60;0.60;;;;;;;0.75;84.88;97013.72;29373;225;63012;-57
2023/03/03 03:10:51;;;;;;;0.70;0.70;;;;;;;0.76;84.80;97009.19;29373;223;63005;-57
2023/03/03 03:11:22;;;;;;;0.60;0.60;;;;;;;0.78;84.55;97018.63;29373;228;63009;-57